Waterloo Airport
CYKF : now visible

Aeroporto :











RITROVATECI SU...

 
LOGIN :

Iscrizione | Disclaimer

   EN    FR    IT 

 









Sommario :    VFR   VFR Marginale   IFR   IFR Intensivo   IFR Molto Intensivo
Visibilità : 
Base nubi : 
>= 8 km
>= 3000ft
5 / 8 km
1000 / 3000 ft
1500m / 5 km
500 / 1000 ft
800 / 1500m
200 / 500 ft
< 800m
< 200 ft
Simboli :   Temporali  Nebbia  Neve Forte  Precipitazioni Forti  Vento > 20 kt






- Altitudine del aeroporto : 1054 ft
- Codice IATA : YKF


CYKF - Waterloo

ULTIMO METAR :
  • 150400Z AUTO 28012G19KT 9SM BKN021 BKN026 OVC050 01/M02 A2949 RMK SLP000

METARs OBSOLETI :
  • 150354Z AUTO 29014G19KT 9SM BKN023 OVC050 01/M02 A2949 RMK SLP999
  • 150300Z AUTO 28013G21KT 9SM BKN029 01/M01 A2949 RMK SLP997
  • 150240Z AUTO 29016G25KT 9SM SCT018 OVC025 01/M01 A2947 RMK SLP992
  • 150209Z AUTO 29020G29KT 9SM SCT008 OVC013 01/M01 A2947 RMK SLP990
  • 150200Z AUTO 29016G25KT 9SM BKN008 OVC013 01/M00 A2947 RMK SLP990

TAF AMD TAF CYKF
Valido dal 15 a 03 ore il 15 a 14 ore UTC


150305Z 1503/1514 29015G25KT P6SM SCT020 BKN030
TEMPO 1503/1506 21/2SM -SHSN BR BKN020 OVC030
FM150600 28012G22KT P6SM SCT015 OVC025
TEMPO 1506/1513 11/2SM -SHSN BKN015 OVC025
FM151300 29015G25KT P6SM SCT020 RMK FCST BASED ON AUTO OBS. NXT FCST BY 150800Z



MetMap, La meteo Aeronautica in un colpo d'occhio ! - Copyright ORBIFLY Dicembre 2007 - Disclaimer

ORBIFLY MET'MAP TEAM :

Programmazione e sviluppo : Alexandra Zaïnal
Concezione : Baudouin d'Aumeries
Aiuto per la programmazione : Marc-Olivier Méhu
Supporto tecnico e logistico : Manuel Goepfert
Aiuto per la traduzione : Arnaldo La Scala

Contatto : metmap@orbifly.com




FONTI E CREDITI :

   NOAA       Earth
Advisory